Time;durP1;ratioP1;P1;durP2;ratioP2;P2;SDS_P1;SDS_P2;PMS_P1;PMS_P2;Temp;Humidity;BMP_temperature;BMP_pressure;BME280_temperature;BME280_humidity;BME280_pressure;Samples;Min_cycle;Max_cycle;Signal;HPM_P1;HPM_P2
2022/05/24 00:00:07;;;;;;;;;;;;;;;23.65;55.96;99373.28;2068384;28;19924;-51
2022/05/24 00:01:08;;;;;;;;;;;;;;;23.65;56.06;99380.69;2064822;28;20373;-43
2022/05/24 00:02:08;;;;;;;;;;;;;;;23.65;56.14;99375.19;2066883;28;19966;-44
2022/05/24 00:03:08;;;;;;;;;;;;;;;23.66;55.94;99374.13;2066869;28;19921;-44
2022/05/24 00:04:09;;;;;;;;;;;;;;;23.66;56.01;99376.88;2063079;28;19924;-44
2022/05/24 00:05:09;;;;;;;;;;;;;;;23.66;56.06;99379.63;2068911;28;19920;-43
2022/05/24 00:06:09;;;;;;;;;;;;;;;23.65;56.01;99383.44;2066617;28;19964;-43
2022/05/24 00:07:10;;;;;;;;;;;;;;;23.66;56.10;99390.63;2068880;28;20274;-43
2022/05/24 00:08:11;;;;;;;;;;;;;;;23.67;56.04;99392.34;2067496;28;19909;-43
2022/05/24 00:09:11;;;;;;;;;;;;;;;23.66;56.03;99390.63;2065302;28;19909;-44
2022/05/24 00:10:13;;;;;;;;;;;;;;;23.66;55.96;99393.38;2068990;28;20416;-43
2022/05/24 00:11:13;;;;;;;;;;;;;;;23.65;55.95;99388.94;2066635;28;20027;-43
2022/05/24 00:12:13;;;;;;;;;;;;;;;23.66;56.00;99387.88;2066125;28;19932;-43
2022/05/24 00:13:13;;;;;;;;;;;;;;;23.65;55.99;99386.19;2068523;28;20118;-43
2022/05/24 00:14:14;;;;;;;;;;;;;;;23.65;55.97;99378.78;2066838;28;19967;-44
2022/05/24 00:15:24;;;;;;;;;;;;;;;23.65;56.02;99377.94;2067292;28;20331;-43
2022/05/24 00:16:24;;;;;;;;;;;;;;;23.64;56.01;99378.97;2066670;28;19921;-42
2022/05/24 00:17:25;;;;;;;;;;;;;;;23.63;56.01;99374.53;2067580;28;19970;-44
2022/05/24 00:18:27;;;;;;;;;;;;;;;23.64;55.96;99376.22;2064358;28;20007;-43
2022/05/24 00:19:27;;;;;;;;;;;;;;;23.64;56.01;99370.72;2068389;28;20204;-44
2022/05/24 00:20:30;;;;;;;;;;;;;;;23.64;56.10;99376.22;2064455;28;19921;-44
2022/05/24 00:21:31;;;;;;;;;;;;;;;23.63;56.00;99374.53;2065800;28;20343;-46
2022/05/24 00:22:31;;;;;;;;;;;;;;;23.63;55.95;99374.53;2068401;28;19971;-43
2022/05/24 00:23:32;;;;;;;;;;;;;;;23.62;56.01;99367.34;2066932;28;19979;-45
2022/05/24 00:24:33;;;;;;;;;;;;;;;23.63;56.01;99366.28;2067438;28;19921;-43
2022/05/24 00:25:35;;;;;;;;;;;;;;;23.62;55.91;99361.81;2075091;28;19988;-43
2022/05/24 00:26:35;;;;;;;;;;;;;;;23.61;56.08;99365.59;2072085;28;20018;-46
2022/05/24 00:27:35;;;;;;;;;;;;;;;23.62;56.04;99367.34;2064588;28;19964;-43
2022/05/24 00:28:36;;;;;;;;;;;;;;;23.62;56.00;99370.09;2067153;28;20291;-45
2022/05/24 00:29:36;;;;;;;;;;;;;;;23.61;55.91;99371.97;2067800;28;20485;-43
2022/05/24 00:30:37;;;;;;;;;;;;;;;23.62;56.00;99375.59;2069178;28;19944;-43
2022/05/24 00:31:37;;;;;;;;;;;;;;;23.62;55.97;99375.59;2066231;28;19913;-44
2022/05/24 00:32:38;;;;;;;;;;;;;;;23.61;55.89;99373.88;2062878;28;19921;-42
2022/05/24 00:33:38;;;;;;;;;;;;;;;23.62;55.96;99376.44;2067055;28;19913;-42
2022/05/24 00:34:38;;;;;;;;;;;;;;;23.62;55.88;99375.59;2066092;28;19917;-43
2022/05/24 00:35:39;;;;;;;;;;;;;;;23.61;55.90;99376.63;2067154;28;20023;-43
2022/05/24 00:36:39;;;;;;;;;;;;;;;23.62;55.85;99378.34;2069383;28;19984;-42
2022/05/24 00:37:41;;;;;;;;;;;;;;;23.61;55.99;99371.13;2066961;28;20086;-43
2022/05/24 00:38:41;;;;;;;;;;;;;;;23.62;55.85;99372.84;2070987;28;19991;-43
2022/05/24 00:39:42;;;;;;;;;;;;;;;23.62;56.00;99370.94;2064196;28;20010;-44
2022/05/24 00:40:51;;;;;;;;;;;;;;;23.62;55.96;99370.09;2068974;28;19940;-46
2022/05/24 00:42:07;;;;;;;;;;;;;;;23.61;55.89;99363.69;2064302;28;20324;-45
2022/05/24 00:43:30;;;;;;;;;;;;;;;23.61;55.85;99366.47;2061329;28;19925;-44
2022/05/24 00:44:36;;;;;;;;;;;;;;;23.62;55.86;99372.84;2070324;28;19913;-42
2022/05/24 00:45:39;;;;;;;;;;;;;;;23.61;55.97;99366.47;2073806;28;19967;-43
2022/05/24 00:46:48;;;;;;;;;;;;;;;23.62;55.97;99378.34;2065514;28;19944;-43
2022/05/24 00:47:51;;;;;;;;;;;;;;;23.62;55.90;99378.34;2065479;28;19949;-43
2022/05/24 00:48:54;;;;;;;;;;;;;;;23.61;55.82;99371.97;2068165;28;20000;-44
2022/05/24 00:50:00;;;;;;;;;;;;;;;23.61;55.85;99366.47;2068479;28;20684;-43
2022/05/24 00:51:01;;;;;;;;;;;;;;;23.60;56.01;99367.50;2068530;28;19998;-44
2022/05/24 00:52:06;;;;;;;;;;;;;;;23.61;55.83;99371.13;2068615;28;19987;-43
2022/05/24 00:53:08;;;;;;;;;;;;;;;23.61;55.93;99379.38;2064305;28;20249;-44
2022/05/24 00:54:09;;;;;;;;;;;;;;;23.61;55.90;99384.88;2069021;28;19921;-43
2022/05/24 00:55:11;;;;;;;;;;;;;;;23.58;55.86;99380.59;2073946;28;19921;-43
2022/05/24 00:56:17;;;;;;;;;;;;;;;23.59;56.03;99381.47;2070188;28;20285;-42
2022/05/24 00:57:29;;;;;;;;;;;;;;;23.60;55.86;99380.44;2070022;28;19969;-45
2022/05/24 00:58:30;;;;;;;;;;;;;;;23.58;55.93;99377.84;2068529;28;20026;-45
2022/05/24 00:59:51;;;;;;;;;;;;;;;23.58;55.88;99383.38;2073029;28;20010;-43
2022/05/24 01:00:52;;;;;;;;;;;;;;;23.58;55.95;99382.50;2070500;28;20064;-42
2022/05/24 01:01:52;;;;;;;;;;;;;;;23.57;55.86;99381.69;2067885;28;20438;-44
2022/05/24 01:02:53;;;;;;;;;;;;;;;23.58;55.80;99382.50;2068141;28;19929;-43
2022/05/24 01:03:54;;;;;;;;;;;;;;;23.58;55.86;99388.03;2061982;28;20032;-45
2022/05/24 01:04:54;;;;;;;;;;;;;;;23.56;55.87;99390.97;2064932;28;20003;-45
2022/05/24 01:05:54;;;;;;;;;;;;;;;23.57;55.82;99387.19;2069645;28;19909;-44
2022/05/24 01:06:54;;;;;;;;;;;;;;;23.57;55.81;99381.69;2067414;28;20145;-43
2022/05/24 01:07:55;;;;;;;;;;;;;;;23.56;55.80;99379.94;2068212;28;19928;-43
2022/05/24 01:08:58;;;;;;;;;;;;;;;23.57;55.83;99378.91;2066194;28;19913;-43
2022/05/24 01:10:01;;;;;;;;;;;;;;;23.58;55.70;99388.03;2068644;28;20180;-43
2022/05/24 01:11:02;;;;;;;;;;;;;;;23.58;55.86;99382.50;2069106;28;20425;-43
2022/05/24 01:12:06;;;;;;;;;;;;;;;23.57;55.82;99389.03;2067031;28;19967;-44
2022/05/24 01:13:06;;;;;;;;;;;;;;;23.57;55.82;99386.31;2068234;28;20125;-44
2022/05/24 01:14:08;;;;;;;;;;;;;;;23.57;55.74;99380.78;2068758;28;19927;-45
2022/05/24 01:15:09;;;;;;;;;;;;;;;23.58;56.09;99388.03;2068474;28;19917;-44
2022/05/24 01:16:10;;;;;;;;;;;;;;;23.58;55.79;99393.53;2070052;28;19960;-43
2022/05/24 01:17:11;;;;;;;;;;;;;;;23.58;55.82;99393.53;2069827;28;20290;-43
2022/05/24 01:18:12;;;;;;;;;;;;;;;23.58;55.71;99390.78;2070829;28;19997;-43
2022/05/24 01:19:43;;;;;;;;;;;;;;;23.58;55.86;99393.53;2069230;28;20410;-44
2022/05/24 01:20:44;;;;;;;;;;;;;;;23.57;55.93;99386.31;2063579;28;19915;-44
2022/05/24 01:21:45;;;;;;;;;;;;;;;23.57;55.74;99380.78;2068722;28;19948;-44
2022/05/24 01:23:01;;;;;;;;;;;;;;;23.58;55.86;99382.50;2067750;28;20194;-44
2022/05/24 01:24:08;;;;;;;;;;;;;;;23.58;55.76;99382.50;2063169;28;19918;-46
2022/05/24 01:25:09;;;;;;;;;;;;;;;23.57;55.74;99386.31;2069742;28;20561;-44
2022/05/24 01:26:09;;;;;;;;;;;;;;;23.57;55.83;99391.81;2068244;28;19917;-43
2022/05/24 01:27:10;;;;;;;;;;;;;;;23.58;55.82;99393.53;2069015;28;19913;-44
2022/05/24 01:28:17;;;;;;;;;;;;;;;23.57;55.83;99389.94;2068682;28;19939;-43
2022/05/24 01:29:18;;;;;;;;;;;;;;;23.57;55.88;99386.31;2066436;28;19944;-45
2022/05/24 01:30:19;;;;;;;;;;;;;;;23.57;55.81;99392.69;2067468;28;19910;-43
2022/05/24 01:31:21;;;;;;;;;;;;;;;23.57;55.76;99386.31;2077799;28;19912;-43
2022/05/24 01:36:21;;;;;;;;;;;;;;;23.53;55.87;99392.19;2070041;28;19921;-44
2022/05/24 01:37:22;;;;;;;;;;;;;;;23.53;55.85;99383.09;2067720;28;20250;-44
2022/05/24 01:38:24;;;;;;;;;;;;;;;23.54;55.88;99393.91;2064980;28;20088;-44
2022/05/24 01:39:24;;;;;;;;;;;;;;;23.53;55.83;99386.69;2068773;28;20327;-44
2022/05/24 01:40:25;;;;;;;;;;;;;;;23.53;56.23;99383.94;2073678;28;20230;-45
2022/05/24 01:41:36;;;;;;;;;;;;;;;23.53;55.91;99386.69;2076334;28;19932;-44
2022/05/24 01:42:37;;;;;;;;;;;;;;;23.52;55.76;99385.00;2075702;28;19909;-42
2022/05/24 01:43:38;;;;;;;;;;;;;;;23.52;55.98;99385.00;2078123;28;19917;-42
2022/05/24 01:44:39;;;;;;;;;;;;;;;23.53;55.80;99391.34;2068263;28;19979;-47
2022/05/24 01:45:50;;;;;;;;;;;;;;;23.52;55.85;99387.75;2066454;28;19921;-43
2022/05/24 01:46:50;;;;;;;;;;;;;;;23.53;55.92;99383.09;2067598;28;19921;-43
2022/05/24 01:47:54;;;;;;;;;;;;;;;23.53;55.85;99385.84;2069884;28;19939;-44
2022/05/24 01:48:56;;;;;;;;;;;;;;;23.52;55.82;99387.75;2068158;28;20298;-44
2022/05/24 01:50:03;;;;;;;;;;;;;;;23.53;55.76;99386.69;2067671;28;20341;-43
2022/05/24 01:51:04;;;;;;;;;;;;;;;23.53;55.87;99386.69;2067990;28;20270;-45
2022/05/24 01:52:08;;;;;;;;;;;;;;;23.52;55.81;99385.00;2065681;28;19917;-44
2022/05/24 01:53:12;;;;;;;;;;;;;;;23.53;55.76;99378.44;2066525;28;19932;-43
2022/05/24 01:54:13;;;;;;;;;;;;;;;23.52;55.76;99376.75;2069214;28;19967;-45
2022/05/24 01:55:20;;;;;;;;;;;;;;;23.52;55.88;99379.50;2064935;28;20446;-44
2022/05/24 01:56:23;;;;;;;;;;;;;;;23.53;55.83;99380.34;2067807;28;20036;-45
2022/05/24 01:57:26;;;;;;;;;;;;;;;23.52;55.82;99382.25;2069380;28;19924;-43
2022/05/24 01:58:28;;;;;;;;;;;;;;;23.53;55.76;99383.09;2064056;28;20382;-43
2022/05/24 01:59:30;;;;;;;;;;;;;;;23.52;55.86;99387.75;2063933;28;20236;-43
2022/05/24 02:00:30;;;;;;;;;;;;;;;23.52;55.83;99390.50;2065867;28;19920;-43
2022/05/24 02:01:51;;;;;;;;;;;;;;;23.52;55.82;99385.00;2066442;28;19917;-43
2022/05/24 02:02:51;;;;;;;;;;;;;;;23.52;55.82;99385.00;2063467;28;19995;-43
2022/05/24 02:03:51;;;;;;;;;;;;;;;23.52;55.75;99390.50;2065635;28;19917;-46
2022/05/24 02:04:52;;;;;;;;;;;;;;;23.52;55.84;99387.75;2068466;28;20505;-54
2022/05/24 02:05:53;;;;;;;;;;;;;;;23.52;55.79;99385.00;2068003;28;19924;-45
2022/05/24 02:06:58;;;;;;;;;;;;;;;23.52;55.69;99378.66;2067424;28;20316;-45
2022/05/24 02:07:58;;;;;;;;;;;;;;;23.51;55.80;99382.44;2068231;28;20338;-43
2022/05/24 02:08:59;;;;;;;;;;;;;;;23.50;55.88;99378.00;2062237;28;19935;-43
2022/05/24 02:09:59;;;;;;;;;;;;;;;23.50;55.78;99384.34;2068754;28;19940;-43
2022/05/24 02:11:01;;;;;;;;;;;;;;;23.50;55.80;99384.34;2068649;28;20027;-43
2022/05/24 02:12:07;;;;;;;;;;;;;;;23.50;55.90;99376.09;2066651;28;20019;-43
2022/05/24 02:13:08;;;;;;;;;;;;;;;23.50;55.88;99376.09;2067885;28;19924;-43
2022/05/24 02:14:09;;;;;;;;;;;;;;;23.49;55.86;99379.91;2064293;28;19921;-44
2022/05/24 02:15:17;;;;;;;;;;;;;;;23.49;55.89;99374.41;2073706;28;19913;-43
2022/05/24 02:16:22;;;;;;;;;;;;;;;23.49;55.88;99379.91;2068400;28;19917;-44
2022/05/24 02:17:24;;;;;;;;;;;;;;;23.50;55.86;99381.59;2076040;28;19909;-43
2022/05/24 02:18:25;;;;;;;;;;;;;;;23.49;55.93;99384.53;2073549;28;20194;-42
2022/05/24 02:19:26;;;;;;;;;;;;;;;23.48;55.85;99389.19;2067189;28;19932;-43
2022/05/24 02:20:29;;;;;;;;;;;;;;;23.49;55.86;99385.41;2067255;28;19917;-44
2022/05/24 02:21:29;;;;;;;;;;;;;;;23.49;55.86;99382.66;2064936;28;19980;-45
2022/05/24 02:22:30;;;;;;;;;;;;;;;23.48;55.82;99377.34;2070126;28;19917;-43
2022/05/24 02:23:38;;;;;;;;;;;;;;;23.49;55.86;99374.41;2082541;28;19920;-44
2022/05/24 02:24:39;;;;;;;;;;;;;;;23.48;55.83;99383.69;2083726;28;20024;-45
2022/05/24 02:25:41;;;;;;;;;;;;;;;23.49;55.87;99376.28;2076524;28;19909;-43
2022/05/24 02:26:41;;;;;;;;;;;;;;;23.49;55.85;99376.28;2072907;28;19917;-44
2022/05/24 02:27:43;;;;;;;;;;;;;;;23.48;55.79;99367.19;2067326;28;19952;-44
2022/05/24 02:28:44;;;;;;;;;;;;;;;23.48;55.72;99367.19;2068754;28;19944;-43
2022/05/24 02:29:44;;;;;;;;;;;;;;;23.49;55.79;99362.53;2069169;28;19964;-43
2022/05/24 02:30:49;;;;;;;;;;;;;;;23.48;55.81;99361.69;2069567;28;19921;-43
2022/05/24 02:31:50;;;;;;;;;;;;;;;23.48;55.76;99364.44;2067565;28;19921;-43
2022/05/24 02:32:50;;;;;;;;;;;;;;;23.49;55.76;99368.91;2068097;28;19928;-43
2022/05/24 02:33:51;;;;;;;;;;;;;;;23.47;55.70;99368.25;2068555;28;20178;-44
2022/05/24 02:34:51;;;;;;;;;;;;;;;23.48;55.81;99366.34;2069643;28;20247;-45
2022/05/24 02:35:52;;;;;;;;;;;;;;;23.49;55.79;99368.91;2069274;28;19966;-43
2022/05/24 02:36:52;;;;;;;;;;;;;;;23.48;55.74;99369.94;2068781;28;19924;-44
2022/05/24 02:37:53;;;;;;;;;;;;;;;23.49;55.83;99368.03;2066820;28;20450;-53
2022/05/24 02:38:54;;;;;;;;;;;;;;;23.48;55.74;99375.44;2069829;28;19925;-53
2022/05/24 02:41:29;;;;;;;;;;;;;;;23.48;55.84;99375.44;2073052;28;19917;-53
2022/05/24 02:42:30;;;;;;;;;;;;;;;23.49;55.85;99379.03;2063477;28;19921;-53
2022/05/24 02:43:31;;;;;;;;;;;;;;;23.48;55.87;99372.69;2066782;28;19913;-43
2022/05/24 02:44:32;;;;;;;;;;;;;;;23.47;55.83;99365.50;2070745;28;19921;-44
2022/05/24 02:45:32;;;;;;;;;;;;;;;23.48;55.79;99371.84;2067021;28;19925;-53
2022/05/24 02:46:33;;;;;;;;;;;;;;;23.47;55.91;99373.75;2069276;28;19952;-54
2022/05/24 02:47:33;;;;;;;;;;;;;;;23.47;55.78;99371.00;2066733;28;20035;-54
2022/05/24 02:48:34;;;;;;;;;;;;;;;23.47;55.80;99373.75;2066485;28;20342;-51
2022/05/24 02:49:34;;;;;;;;;;;;;;;23.46;55.87;99372.03;2069450;28;19962;-54
2022/05/24 02:50:35;;;;;;;;;;;;;;;23.46;55.74;99366.53;2068040;28;20331;-52
2022/05/24 02:51:37;;;;;;;;;;;;;;;23.46;55.81;99363.78;2069361;28;19918;-53
2022/05/24 02:52:39;;;;;;;;;;;;;;;23.46;55.81;99368.44;2072426;28;19970;-54
2022/05/24 02:53:40;;;;;;;;;;;;;;;23.46;55.94;99374.78;2072876;28;19964;-53
2022/05/24 02:54:41;;;;;;;;;;;;;;;23.45;55.83;99373.09;2069372;28;19970;-53
2022/05/24 02:55:41;;;;;;;;;;;;;;;23.46;55.82;99376.69;2070298;28;19946;-53
2022/05/24 02:56:44;;;;;;;;;;;;;;;23.45;55.79;99373.09;2069058;28;19916;-53
2022/05/24 02:57:44;;;;;;;;;;;;;;;23.45;55.80;99370.34;2063699;28;19913;-53
2022/05/24 02:58:44;;;;;;;;;;;;;;;23.46;55.82;99379.44;2065355;28;20276;-52
2022/05/24 02:59:45;;;;;;;;;;;;;;;23.46;55.67;99380.28;2069056;28;20396;-54
2022/05/24 03:00:45;;;;;;;;;;;;;;;23.45;55.69;99378.59;2064792;28;19921;-50
2022/05/24 03:01:45;;;;;;;;;;;;;;;23.46;55.75;99379.44;2068757;28;19928;-54
2022/05/24 03:02:46;;;;;;;;;;;;;;;23.46;55.65;99380.28;2067691;28;19925;-54
2022/05/24 03:03:49;;;;;;;;;;;;;;;23.47;55.71;99376.50;2065611;28;19923;-55
2022/05/24 03:04:49;;;;;;;;;;;;;;;23.48;55.79;99375.44;2068069;28;19928;-55
2022/05/24 03:05:49;;;;;;;;;;;;;;;23.49;55.80;99368.91;2066657;28;19984;-54
2022/05/24 03:09:34;;;;;;;;;;;;;;;23.49;56.01;99363.41;2065747;28;19928;-55
2022/05/24 03:10:34;;;;;;;;;;;;;;;23.50;56.06;99376.09;2065788;28;19924;-57
2022/05/24 03:14:22;;;;;;;;;;;;;;;23.50;56.30;99370.59;2066826;28;20275;-57
2022/05/24 03:15:23;;;;;;;;;;;;;;;23.50;56.16;99370.59;2066204;28;19966;-49
2022/05/24 03:16:23;;;;;;;;;;;;;;;23.50;56.19;99373.34;2069118;28;20507;-48
2022/05/24 03:17:24;;;;;;;;;;;;;;;23.50;56.32;99369.75;2066467;28;19924;-58
2022/05/24 03:18:25;;;;;;;;;;;;;;;23.49;56.42;99371.66;2067897;28;20213;-57
2022/05/24 03:19:25;;;;;;;;;;;;;;;23.49;56.33;99368.91;2067580;28;19920;-56
2022/05/24 03:20:26;;;;;;;;;;;;;;;23.48;56.48;99378.19;2067802;28;19917;-57
2022/05/24 03:21:27;;;;;;;;;;;;;;;23.48;56.44;99371.84;2065919;28;19949;-56
2022/05/24 03:22:28;;;;;;;;;;;;;;;23.47;56.42;99376.50;2068728;28;19917;-55
2022/05/24 03:23:28;;;;;;;;;;;;;;;23.47;56.48;99375.63;2065980;28;19941;-55
2022/05/24 03:24:28;;;;;;;;;;;;;;;23.47;56.36;99376.50;2064985;28;19913;-55
2022/05/24 03:25:31;;;;;;;;;;;;;;;23.47;56.56;99370.13;2069414;28;19910;-54
2022/05/24 03:26:31;;;;;;;;;;;;;;;23.47;56.53;99364.63;2070097;28;20055;-54
2022/05/24 03:27:31;;;;;;;;;;;;;;;23.47;56.59;99375.63;2066765;28;20320;-55
2022/05/24 03:28:32;;;;;;;;;;;;;;;23.45;56.53;99364.84;2066959;28;19957;-54
2022/05/24 03:29:32;;;;;;;;;;;;;;;23.46;56.61;99369.28;2066291;28;20042;-55
2022/05/24 03:30:37;;;;;;;;;;;;;;;23.45;56.60;99362.09;2068390;28;19947;-55
2022/05/24 03:31:37;;;;;;;;;;;;;;;23.46;56.60;99363.78;2072500;28;19917;-55
2022/05/24 03:32:38;;;;;;;;;;;;;;;23.45;56.59;99359.34;2068618;28;20484;-55
2022/05/24 03:33:38;;;;;;;;;;;;;;;23.45;56.63;99367.59;2072461;28;19980;-54
2022/05/24 03:34:41;;;;;;;;;;;;;;;23.44;56.53;99360.38;2068528;28;19921;-54
2022/05/24 03:35:41;;;;;;;;;;;;;;;23.45;56.44;99367.59;2067884;28;19917;-55
2022/05/24 03:36:42;;;;;;;;;;;;;;;23.45;56.54;99362.09;2067265;28;20221;-54
2022/05/24 03:37:42;;;;;;;;;;;;;;;23.46;56.53;99371.19;2066411;28;19924;-54
2022/05/24 03:38:42;;;;;;;;;;;;;;;23.46;56.60;99363.78;2068203;28;19913;-55
2022/05/24 03:39:43;;;;;;;;;;;;;;;23.46;56.58;99369.28;2063892;28;19913;-53
2022/05/24 03:40:43;;;;;;;;;;;;;;;23.46;56.63;99363.78;2068519;28;19921;-55
2022/05/24 03:41:45;;;;;;;;;;;;;;;23.46;56.64;99362.94;2067362;28;19998;-55
2022/05/24 03:42:46;;;;;;;;;;;;;;;23.47;56.67;99364.63;2069990;28;20320;-54
2022/05/24 03:43:46;;;;;;;;;;;;;;;23.47;56.71;99367.38;2074691;28;19925;-54
2022/05/24 03:44:47;;;;;;;;;;;;;;;23.46;56.76;99363.78;2077351;28;20018;-56
2022/05/24 03:45:47;;;;;;;;;;;;;;;23.47;56.59;99360.00;2066138;28;20271;-50
2022/05/24 03:46:47;;;;;;;;;;;;;;;23.47;56.89;99365.50;2067061;28;20057;-49
2022/05/24 03:47:48;;;;;;;;;;;;;;;23.47;56.89;99371.00;2075511;28;20201;-49
2022/05/24 03:48:48;;;;;;;;;;;;;;;23.46;56.90;99363.78;2062773;28;20342;-52
2022/05/24 03:49:49;;;;;;;;;;;;;;;23.46;56.88;99369.28;2068195;28;20300;-48
2022/05/24 03:50:49;;;;;;;;;;;;;;;23.46;56.92;99365.69;2067628;28;20156;-50
2022/05/24 03:51:49;;;;;;;;;;;;;;;23.45;56.91;99362.09;2065744;28;19913;-51
2022/05/24 03:52:50;;;;;;;;;;;;;;;23.46;56.90;99368.44;2062244;28;19917;-49
2022/05/24 03:53:50;;;;;;;;;;;;;;;23.45;56.94;99378.59;2066071;28;19924;-49
2022/05/24 03:54:50;;;;;;;;;;;;;;;23.44;56.79;99365.88;2068793;28;20613;-52
2022/05/24 03:55:51;;;;;;;;;;;;;;;23.44;56.93;99370.53;2065167;28;19921;-52
2022/05/24 03:58:10;;;;;;;;;;;;;;;23.42;56.88;99367.97;2069157;28;19956;-49
2022/05/24 03:59:11;;;;;;;;;;;;;;;23.42;56.91;99367.97;2063993;28;19913;-52
2022/05/24 04:00:12;;;;;;;;;;;;;;;23.41;57.03;99366.25;2067148;28;19921;-49
2022/05/24 04:01:13;;;;;;;;;;;;;;;23.41;56.99;99363.50;2069529;28;19917;-49
2022/05/24 04:02:13;;;;;;;;;;;;;;;23.40;56.88;99358.22;2084796;28;19927;-50
2022/05/24 04:03:14;;;;;;;;;;;;;;;23.39;57.06;99351.84;2095463;28;19927;-49
2022/05/24 04:04:14;;;;;;;;;;;;;;;23.39;56.90;99351.00;2065615;28;19932;-50
2022/05/24 04:05:15;;;;;;;;;;;;;;;23.38;57.03;99350.16;2067561;28;19928;-51
2022/05/24 04:06:15;;;;;;;;;;;;;;;23.39;56.94;99345.50;2067568;28;19990;-48
2022/05/24 04:07:15;;;;;;;;;;;;;;;23.38;57.03;99358.41;2066470;28;19960;-50
2022/05/24 04:08:17;;;;;;;;;;;;;;;23.39;56.93;99351.84;2067478;28;20571;-49
2022/05/24 04:09:17;;;;;;;;;;;;;;;23.38;57.03;99352.91;2066128;28;19920;-50
2022/05/24 04:10:19;;;;;;;;;;;;;;;23.38;57.00;99354.81;2066396;28;19978;-49
2022/05/24 04:11:20;;;;;;;;;;;;;;;23.37;56.95;99353.97;2067162;28;19977;-52
2022/05/24 04:12:20;;;;;;;;;;;;;;;23.37;57.00;99353.97;2065597;28;20274;-50
2022/05/24 04:13:21;;;;;;;;;;;;;;;23.38;56.99;99357.56;2066361;28;19913;-49
2022/05/24 04:14:21;;;;;;;;;;;;;;;23.38;56.87;99352.91;2074391;28;19999;-49
2022/05/24 04:15:23;;;;;;;;;;;;;;;23.38;57.06;99352.91;2074163;28;19913;-49
2022/05/24 04:16:24;;;;;;;;;;;;;;;23.38;56.89;99355.66;2065762;28;19943;-49
2022/05/24 04:17:24;;;;;;;;;;;;;;;23.37;56.89;99348.47;2069299;28;20003;-50
2022/05/24 04:18:25;;;;;;;;;;;;;;;23.37;56.90;99348.47;2067722;28;20123;-49
2022/05/24 04:19:25;;;;;;;;;;;;;;;23.37;56.89;99348.47;2068990;28;20031;-49
2022/05/24 04:20:27;;;;;;;;;;;;;;;23.37;56.96;99348.47;2065802;28;20351;-49
2022/05/24 04:21:27;;;;;;;;;;;;;;;23.38;56.92;99354.81;2068405;28;19917;-49
2022/05/24 04:22:27;;;;;;;;;;;;;;;23.37;56.97;99347.59;2074454;28;19920;-49
2022/05/24 04:23:27;;;;;;;;;;;;;;;23.37;56.85;99351.22;2068747;28;19929;-45
2022/05/24 04:24:28;;;;;;;;;;;;;;;23.37;56.84;99340.22;2070335;28;19982;-44
2022/05/24 04:25:32;;;;;;;;;;;;;;;23.39;56.83;99353.75;2067455;28;19924;-42
2022/05/24 04:26:33;;;;;;;;;;;;;;;23.37;56.85;99351.22;2068376;28;19909;-43
2022/05/24 04:27:33;;;;;;;;;;;;;;;23.37;56.83;99353.97;2070227;28;19956;-42
2022/05/24 04:28:34;;;;;;;;;;;;;;;23.38;56.96;99355.66;2069744;28;19917;-42
2022/05/24 04:29:34;;;;;;;;;;;;;;;23.37;56.95;99359.47;2068392;28;19925;-44
2022/05/24 04:30:34;;;;;;;;;;;;;;;23.38;56.87;99360.31;2072396;28;19925;-44
2022/05/24 04:31:35;;;;;;;;;;;;;;;23.37;56.84;99356.72;2077514;28;19916;-43
2022/05/24 04:32:35;;;;;;;;;;;;;;;23.36;56.84;99360.50;2087702;28;20227;-43
2022/05/24 04:33:36;;;;;;;;;;;;;;;23.37;56.87;99353.97;2074786;28;20329;-46
2022/05/24 04:34:37;;;;;;;;;;;;;;;23.37;56.83;99355.84;2069558;28;19921;-42
2022/05/24 04:35:37;;;;;;;;;;;;;;;23.36;56.89;99363.25;2073677;28;19913;-42
2022/05/24 04:36:38;;;;;;;;;;;;;;;23.36;56.86;99362.41;2072383;28;19920;-43
2022/05/24 04:37:38;;;;;;;;;;;;;;;23.36;56.82;99367.91;2069311;28;20217;-43
2022/05/24 04:38:38;;;;;;;;;;;;;;;23.35;56.83;99358.81;2074211;28;19917;-42
2022/05/24 04:39:38;;;;;;;;;;;;;;;23.35;56.85;99361.56;2070428;28;20400;-44
2022/05/24 04:43:16;;;;;;;;;;;;;;;23.33;56.85;99370.00;2070432;28;20441;-43
2022/05/24 04:44:17;;;;;;;;;;;;;;;23.33;56.92;99381.00;2068377;28;19921;-42
2022/05/24 04:45:17;;;;;;;;;;;;;;;23.33;56.78;99375.50;2062371;28;20505;-44
2022/05/24 04:46:17;;;;;;;;;;;;;;;23.33;56.92;99377.41;2064929;28;20175;-44
2022/05/24 04:47:19;;;;;;;;;;;;;;;23.32;56.96;99367.44;2065877;28;20301;-43
2022/05/24 04:48:20;;;;;;;;;;;;;;;23.32;56.86;99376.56;2069044;28;19919;-42
2022/05/24 04:49:21;;;;;;;;;;;;;;;23.32;56.80;99370.19;2061950;28;19917;-43
2022/05/24 04:50:21;;;;;;;;;;;;;;;23.32;56.84;99365.56;2060639;28;20358;-42
2022/05/24 04:51:21;;;;;;;;;;;;;;;23.32;56.91;99368.31;2066118;28;19979;-43
2022/05/24 04:52:26;;;;;;;;;;;;;;;23.32;56.87;99373.81;2071388;28;19917;-43
2022/05/24 04:53:27;;;;;;;;;;;;;;;23.32;56.89;99370.19;2075417;28;19918;-43
2022/05/24 04:54:27;;;;;;;;;;;;;;;23.33;56.95;99372.75;2070893;28;19921;-42
2022/05/24 04:55:28;;;;;;;;;;;;;;;23.33;56.80;99385.66;2079272;28;19913;-42
2022/05/24 04:56:28;;;;;;;;;;;;;;;23.32;56.72;99372.94;2066432;28;19917;-43
2022/05/24 04:57:29;;;;;;;;;;;;;;;23.33;56.70;99374.66;2068512;28;20311;-45
2022/05/24 04:58:29;;;;;;;;;;;;;;;23.32;56.85;99365.56;2067736;28;20043;-43
2022/05/24 04:59:29;;;;;;;;;;;;;;;23.32;56.70;99367.44;2067722;28;19941;-44
2022/05/24 05:00:30;;;;;;;;;;;;;;;23.32;56.85;99372.94;2069685;28;19921;-43
2022/05/24 05:01:30;;;;;;;;;;;;;;;23.33;56.80;99369.16;2065197;28;20347;-43
2022/05/24 05:02:30;;;;;;;;;;;;;;;23.33;56.80;99374.66;2067055;28;19936;-45
2022/05/24 05:03:31;;;;;;;;;;;;;;;23.33;56.78;99385.66;2064388;28;19921;-43
2022/05/24 05:04:31;;;;;;;;;;;;;;;23.33;56.87;99380.16;2064049;28;19921;-42
2022/05/24 05:05:32;;;;;;;;;;;;;;;23.32;56.87;99375.69;2068253;28;20059;-42
2022/05/24 05:06:33;;;;;;;;;;;;;;;23.33;56.83;99382.91;2069365;28;19924;-43
2022/05/24 05:07:34;;;;;;;;;;;;;;;23.32;56.81;99381.19;2068486;28;19932;-42
2022/05/24 05:08:34;;;;;;;;;;;;;;;23.32;56.78;99384.81;2067370;28;19925;-42
2022/05/24 05:09:34;;;;;;;;;;;;;;;23.31;56.79;99376.72;2059379;28;19917;-42
2022/05/24 05:10:35;;;;;;;;;;;;;;;23.32;56.81;99383.94;2072183;28;19927;-42
2022/05/24 05:11:35;;;;;;;;;;;;;;;23.32;56.80;99386.69;2084373;28;19924;-42
2022/05/24 05:12:36;;;;;;;;;;;;;;;23.31;56.86;99382.25;2068745;28;19924;-43
2022/05/24 05:13:37;;;;;;;;;;;;;;;23.30;56.85;99381.38;2068820;28;19979;-42
2022/05/24 05:14:38;;;;;;;;;;;;;;;23.29;56.92;99373.31;2069736;28;20075;-43
2022/05/24 05:15:39;;;;;;;;;;;;;;;23.30;56.83;99386.03;2068217;28;20178;-42
2022/05/24 05:16:40;;;;;;;;;;;;;;;23.29;56.80;99382.41;2068329;28;19975;-42
2022/05/24 05:17:41;;;;;;;;;;;;;;;23.29;56.80;99379.66;2068918;28;19913;-42
2022/05/24 05:18:41;;;;;;;;;;;;;;;23.29;56.86;99384.31;2063651;28;19913;-44
2022/05/24 05:19:41;;;;;;;;;;;;;;;23.28;56.83;99379.88;2068955;28;20012;-42
2022/05/24 05:20:42;;;;;;;;;;;;;;;23.29;56.81;99389.81;2070172;28;20276;-44
2022/05/24 05:21:42;;;;;;;;;;;;;;;23.29;56.91;99389.81;2068029;28;19931;-42
2022/05/24 05:22:42;;;;;;;;;;;;;;;23.28;56.86;99383.47;2068256;28;19917;-44
2022/05/24 05:23:43;;;;;;;;;;;;;;;23.28;56.81;99383.47;2072342;28;19909;-49
2022/05/24 05:24:43;;;;;;;;;;;;;;;23.28;56.97;99382.63;2066679;28;19986;-50
2022/05/24 05:25:47;;;;;;;;;;;;;;;23.28;56.76;99390.88;2069968;28;20025;-48
2022/05/24 05:26:48;;;;;;;;;;;;;;;23.27;56.77;99383.66;2067025;28;19917;-49
2022/05/24 05:27:48;;;;;;;;;;;;;;;23.29;56.82;99389.81;2068762;28;19921;-50
2022/05/24 05:28:49;;;;;;;;;;;;;;;23.27;56.72;99381.78;2068682;28;20091;-49
2022/05/24 05:31:19;;;;;;;;;;;;;;;23.28;56.72;99377.97;2063221;28;19921;-48
2022/05/24 05:32:21;;;;;;;;;;;;;;;23.28;56.73;99382.63;2064881;28;19989;-48
2022/05/24 05:33:21;;;;;;;;;;;;;;;23.28;56.74;99385.38;2068099;28;20347;-49
2022/05/24 05:34:22;;;;;;;;;;;;;;;23.28;56.77;99388.13;2068733;28;19943;-51
2022/05/24 05:35:22;;;;;;;;;;;;;;;23.27;56.91;99384.53;2068025;28;19917;-48
2022/05/24 05:36:22;;;;;;;;;;;;;;;23.27;56.77;99383.66;2070014;28;20867;-51
2022/05/24 05:37:23;;;;;;;;;;;;;;;23.28;56.81;99379.88;2067923;28;19910;-49